Time;durP1;ratioP1;P1;durP2;ratioP2;P2;SDS_P1;SDS_P2;PMS_P1;PMS_P2;Temp;Humidity;BMP_temperature;BMP_pressure;BME280_temperature;BME280_humidity;BME280_pressure;Samples;Min_cycle;Max_cycle;Signal;HPM_P1;HPM_P2
2023/12/14 00:01:13;;;;;;;0.20;0.20;;;;;;;;;;6302630;28;20055;-80
2023/12/14 00:04:14;;;;;;;0.20;0.20;;;;;;;;;;6281630;28;20518;-80
2023/12/14 00:07:15;;;;;;;0.20;0.20;;;;;;;;;;6307917;28;20020;-80
2023/12/14 00:10:17;;;;;;;0.20;0.20;;;;;;;;;;6295278;28;20028;-80
2023/12/14 00:13:18;;;;;;;0.20;0.20;;;;;;;;;;6290111;28;20630;-80
2023/12/14 00:16:18;;;;;;;0.20;0.20;;;;;;;;;;6286030;28;20070;-80
2023/12/14 00:19:18;;;;;;;0.20;0.20;;;;;;;;;;6295745;28;20013;-80
2023/12/14 00:22:18;;;;;;;0.20;0.20;;;;;;;;;;6285887;28;20025;-80
2023/12/14 00:25:19;;;;;;;0.20;0.20;;;;;;;;;;6290415;28;20052;-80
2023/12/14 00:28:19;;;;;;;0.20;0.20;;;;;;;;;;6294712;28;20466;-80
2023/12/14 00:31:19;;;;;;;0.20;0.20;;;;;;;;;;6294857;28;20023;-80
2023/12/14 00:34:19;;;;;;;0.20;0.20;;;;;;;;;;6308776;28;20052;-80
2023/12/14 00:37:20;;;;;;;0.20;0.20;;;;;;;;;;6306741;28;20032;-80
2023/12/14 00:40:20;;;;;;;0.20;0.20;;;;;;;;;;6298068;28;20031;-80
2023/12/14 00:43:20;;;;;;;0.20;0.20;;;;;;;;;;6294269;28;20016;-80
2023/12/14 00:46:21;;;;;;;0.20;0.20;;;;;;;;;;6294257;28;20009;-80
2023/12/14 00:49:21;;;;;;;0.20;0.20;;;;;;;;;;6292865;28;20017;-80
2023/12/14 00:52:21;;;;;;;0.20;0.20;;;;;;;;;;6294284;28;20023;-80
2023/12/14 00:55:21;;;;;;;0.20;0.20;;;;;;;;;;6283398;28;20025;-80
2023/12/14 00:58:22;;;;;;;0.20;0.20;;;;;;;;;;6273676;28;20849;-80
2023/12/14 01:01:22;;;;;;;0.20;0.20;;;;;;;;;;6293721;28;20467;-80
2023/12/14 01:04:22;;;;;;;0.20;0.20;;;;;;;;;;6292827;28;20482;-80
2023/12/14 01:07:22;;;;;;;0.20;0.20;;;;;;;;;;6267222;28;20031;-80
2023/12/14 01:10:23;;;;;;;0.20;0.20;;;;;;;;;;6294101;28;20099;-80
2023/12/14 01:13:23;;;;;;;0.20;0.20;;;;;;;;;;6265375;28;20148;-79
2023/12/14 01:16:25;;;;;;;0.20;0.20;;;;;;;;;;6293762;28;20048;-80
2023/12/14 01:19:26;;;;;;;0.20;0.20;;;;;;;;;;6269485;28;20466;-79
2023/12/14 01:22:26;;;;;;;0.20;0.20;;;;;;;;;;6272207;28;20022;-80
2023/12/14 01:25:26;;;;;;;0.20;0.20;;;;;;;;;;6293911;28;20017;-80
2023/12/14 01:28:26;;;;;;;0.20;0.20;;;;;;;;;;6293544;28;20017;-80
2023/12/14 01:31:27;;;;;;;0.20;0.20;;;;;;;;;;6275952;28;20012;-80
2023/12/14 01:34:27;;;;;;;0.20;0.20;;;;;;;;;;6279406;28;20129;-80
2023/12/14 01:37:27;;;;;;;0.20;0.20;;;;;;;;;;6268416;28;20035;-80
2023/12/14 01:40:28;;;;;;;0.20;0.20;;;;;;;;;;6260605;28;20036;-80
2023/12/14 01:43:28;;;;;;;0.20;0.20;;;;;;;;;;6292987;28;20073;-80
2023/12/14 01:46:28;;;;;;;0.20;0.20;;;;;;;;;;6291849;28;20016;-80
2023/12/14 01:49:28;;;;;;;0.20;0.20;;;;;;;;;;6291680;28;20112;-80
2023/12/14 01:52:29;;;;;;;0.20;0.20;;;;;;;;;;6290449;28;20554;-80
2023/12/14 01:55:29;;;;;;;0.20;0.20;;;;;;;;;;6275107;28;20410;-79
2023/12/14 01:58:29;;;;;;;0.20;0.20;;;;;;;;;;6274943;28;20103;-80
2023/12/14 02:01:35;;;;;;;0.20;0.20;;;;;;;;;;6292507;28;20441;-80
2023/12/14 02:04:37;;;;;;;0.20;0.20;;;;;;;;;;6292445;28;20191;-80
2023/12/14 02:07:37;;;;;;;0.20;0.20;;;;;;;;;;6290984;28;20492;-80
2023/12/14 02:10:37;;;;;;;0.20;0.20;;;;;;;;;;6291956;28;20025;-80
2023/12/14 02:13:38;;;;;;;0.20;0.20;;;;;;;;;;6292718;28;20108;-85
2023/12/14 02:16:38;;;;;;;0.20;0.20;;;;;;;;;;6253600;28;20115;-85
2023/12/14 02:19:39;;;;;;;0.20;0.20;;;;;;;;;;6292759;28;20051;-85
2023/12/14 02:22:52;;;;;;;0.20;0.20;;;;;;;;;;6292688;28;20482;-85
2023/12/14 02:25:52;;;;;;;0.20;0.20;;;;;;;;;;6271001;28;20083;-85
2023/12/14 02:28:52;;;;;;;0.20;0.20;;;;;;;;;;6267874;28;20024;-85
2023/12/14 02:31:52;;;;;;;0.20;0.20;;;;;;;;;;6284064;28;20019;-85
2023/12/14 02:34:53;;;;;;;0.20;0.20;;;;;;;;;;6303037;28;20023;-85
2023/12/14 02:37:53;;;;;;;0.20;0.20;;;;;;;;;;6300990;28;20096;-85
2023/12/14 02:40:53;;;;;;;0.20;0.20;;;;;;;;;;6280769;28;20592;-85
2023/12/14 02:43:53;;;;;;;0.20;0.20;;;;;;;;;;6292204;28;20024;-85
2023/12/14 02:46:54;;;;;;;0.20;0.20;;;;;;;;;;6291784;28;20100;-85
2023/12/14 02:49:54;;;;;;;0.20;0.20;;;;;;;;;;6274119;28;20494;-85
2023/12/14 02:52:55;;;;;;;0.20;0.20;;;;;;;;;;6292277;28;20502;-85
2023/12/14 02:55:55;;;;;;;0.20;0.20;;;;;;;;;;6289086;28;20016;-85
2023/12/14 02:58:55;;;;;;;0.20;0.20;;;;;;;;;;6277845;28;20025;-85
2023/12/14 03:01:55;;;;;;;0.20;0.20;;;;;;;;;;6291997;28;20075;-80
2023/12/14 03:04:56;;;;;;;0.20;0.20;;;;;;;;;;6251487;28;20454;-80
2023/12/14 03:07:56;;;;;;;0.20;0.20;;;;;;;;;;6286422;28;20429;-80
2023/12/14 03:10:57;;;;;;;0.20;0.20;;;;;;;;;;6277090;28;20028;-80
2023/12/14 03:13:57;;;;;;;0.20;0.20;;;;;;;;;;6291635;28;20400;-80
2023/12/14 03:16:57;;;;;;;0.20;0.20;;;;;;;;;;6291525;28;20021;-80
2023/12/14 03:19:58;;;;;;;0.20;0.20;;;;;;;;;;6291316;28;20352;-80
2023/12/14 03:22:58;;;;;;;0.20;0.20;;;;;;;;;;6259528;28;20025;-80
2023/12/14 03:25:58;;;;;;;0.20;0.20;;;;;;;;;;6292121;28;20104;-80
2023/12/14 03:28:58;;;;;;;0.20;0.20;;;;;;;;;;6260006;28;20044;-80
2023/12/14 03:31:59;;;;;;;0.20;0.20;;;;;;;;;;6291604;28;20013;-80
2023/12/14 03:34:59;;;;;;;0.20;0.20;;;;;;;;;;6291605;28;20383;-80
2023/12/14 03:37:59;;;;;;;0.20;0.20;;;;;;;;;;6273355;28;20024;-80
2023/12/14 03:41:00;;;;;;;0.20;0.20;;;;;;;;;;6262815;28;20398;-80
2023/12/14 03:44:00;;;;;;;0.20;0.20;;;;;;;;;;6269449;28;20055;-80
2023/12/14 03:47:00;;;;;;;0.20;0.20;;;;;;;;;;6291406;28;20025;-80
2023/12/14 03:50:00;;;;;;;0.20;0.20;;;;;;;;;;6298660;28;20488;-80
2023/12/14 03:53:01;;;;;;;0.20;0.20;;;;;;;;;;6290285;28;20799;-80
2023/12/14 03:56:01;;;;;;;0.20;0.20;;;;;;;;;;6295418;28;20421;-80
2023/12/14 03:59:01;;;;;;;0.20;0.20;;;;;;;;;;6272724;28;20068;-80
2023/12/14 04:02:02;;;;;;;0.20;0.20;;;;;;;;;;6290989;28;20498;-80
2023/12/14 04:05:02;;;;;;;0.20;0.20;;;;;;;;;;6286604;28;20459;-80
2023/12/14 04:08:02;;;;;;;0.20;0.20;;;;;;;;;;6292390;28;20028;-80
2023/12/14 04:11:03;;;;;;;0.20;0.20;;;;;;;;;;6290408;28;20082;-80
2023/12/14 04:14:03;;;;;;;0.20;0.20;;;;;;;;;;6310177;28;20028;-80
2023/12/14 04:17:03;;;;;;;0.20;0.20;;;;;;;;;;6289143;28;20025;-80
2023/12/14 04:20:05;;;;;;;0.20;0.20;;;;;;;;;;6294776;28;20032;-80
2023/12/14 04:23:07;;;;;;;0.20;0.20;;;;;;;;;;6277447;28;20431;-85
2023/12/14 04:26:09;;;;;;;0.20;0.20;;;;;;;;;;6283545;28;20024;-85
2023/12/14 04:29:09;;;;;;;0.20;0.20;;;;;;;;;;6301581;28;20489;-85
2023/12/14 04:32:10;;;;;;;0.20;0.20;;;;;;;;;;6283877;28;20111;-80
2023/12/14 04:35:10;;;;;;;0.20;0.20;;;;;;;;;;6295208;28;20031;-80
2023/12/14 04:38:10;;;;;;;0.20;0.20;;;;;;;;;;6295510;28;20016;-80
2023/12/14 04:41:11;;;;;;;0.20;0.20;;;;;;;;;;6289025;28;20055;-80
2023/12/14 04:44:11;;;;;;;0.20;0.20;;;;;;;;;;6276659;28;20020;-80
2023/12/14 04:47:12;;;;;;;0.20;0.20;;;;;;;;;;6294830;28;20090;-80
2023/12/14 04:50:12;;;;;;;0.20;0.20;;;;;;;;;;6288281;28;20016;-79
2023/12/14 04:53:12;;;;;;;0.20;0.20;;;;;;;;;;6275921;28;20029;-79
2023/12/14 04:56:13;;;;;;;0.20;0.20;;;;;;;;;;6293893;28;20020;-80
2023/12/14 04:59:13;;;;;;;0.20;0.20;;;;;;;;;;6276177;28;20074;-79
2023/12/14 05:02:13;;;;;;;0.20;0.20;;;;;;;;;;6307658;28;20481;-80
2023/12/14 05:05:13;;;;;;;0.20;0.20;;;;;;;;;;6307908;28;20089;-80
2023/12/14 05:08:14;;;;;;;0.20;0.20;;;;;;;;;;6293716;28;20032;-80
2023/12/14 05:11:14;;;;;;;0.20;0.20;;;;;;;;;;6294427;28;20296;-80
2023/12/14 05:14:14;;;;;;;0.20;0.20;;;;;;;;;;6293971;28;20017;-80
2023/12/14 05:17:14;;;;;;;0.20;0.20;;;;;;;;;;6294065;28;20024;-80
2023/12/14 05:20:15;;;;;;;0.20;0.20;;;;;;;;;;6287038;28;20017;-80
2023/12/14 05:23:15;;;;;;;0.20;0.20;;;;;;;;;;6269714;28;20089;-80
2023/12/14 05:26:15;;;;;;;0.20;0.20;;;;;;;;;;6294330;28;20479;-79
2023/12/14 05:29:17;;;;;;;0.20;0.20;;;;;;;;;;6256339;28;20017;-79
2023/12/14 05:32:17;;;;;;;0.20;0.20;;;;;;;;;;6286875;28;20020;-79
2023/12/14 05:35:17;;;;;;;0.20;0.20;;;;;;;;;;6291810;28;20028;-79
2023/12/14 05:38:18;;;;;;;0.20;0.20;;;;;;;;;;6293478;28;20032;-79
2023/12/14 05:41:18;;;;;;;0.20;0.20;;;;;;;;;;6266923;28;20440;-79
2023/12/14 05:44:18;;;;;;;0.20;0.20;;;;;;;;;;6272671;28;20021;-79
2023/12/14 05:47:19;;;;;;;0.20;0.20;;;;;;;;;;6300927;28;20108;-79
2023/12/14 05:50:19;;;;;;;0.20;0.20;;;;;;;;;;6292210;28;20049;-79
2023/12/14 05:53:19;;;;;;;0.20;0.20;;;;;;;;;;6296233;28;20020;-79
2023/12/14 05:56:20;;;;;;;0.20;0.20;;;;;;;;;;6302586;28;20028;-79
2023/12/14 05:59:20;;;;;;;0.20;0.20;;;;;;;;;;6305908;28;20395;-79
2023/12/14 06:02:20;;;;;;;0.20;0.20;;;;;;;;;;6303900;28;20109;-79
2023/12/14 06:05:20;;;;;;;0.20;0.20;;;;;;;;;;6300414;28;20397;-79
2023/12/14 06:08:20;;;;;;;0.20;0.20;;;;;;;;;;6289945;28;20043;-79
2023/12/14 06:11:21;;;;;;;0.20;0.20;;;;;;;;;;6292097;28;20024;-78
2023/12/14 06:14:21;;;;;;;0.20;0.20;;;;;;;;;;6286216;28;20024;-78
2023/12/14 06:17:22;;;;;;;0.20;0.20;;;;;;;;;;6274070;28;20032;-78
2023/12/14 06:20:22;;;;;;;0.20;0.20;;;;;;;;;;6276487;28;20028;-78
2023/12/14 06:23:23;;;;;;;0.20;0.20;;;;;;;;;;6279538;28;20471;-79
2023/12/14 06:26:23;;;;;;;0.20;0.20;;;;;;;;;;6300412;28;20012;-79
2023/12/14 06:29:23;;;;;;;0.20;0.20;;;;;;;;;;6298721;28;20470;-79
2023/12/14 06:32:24;;;;;;;0.20;0.20;;;;;;;;;;6291627;28;20017;-79
2023/12/14 06:35:24;;;;;;;0.20;0.20;;;;;;;;;;6305266;28;20087;-79
2023/12/14 06:38:24;;;;;;;0.20;0.20;;;;;;;;;;6291077;28;20048;-79
2023/12/14 06:41:25;;;;;;;0.20;0.20;;;;;;;;;;6273775;28;20540;-78
2023/12/14 06:44:27;;;;;;;0.20;0.20;;;;;;;;;;6290070;28;20028;-87
2023/12/14 06:47:28;;;;;;;0.20;0.20;;;;;;;;;;6291611;28;20016;-86
2023/12/14 06:50:28;;;;;;;0.20;0.20;;;;;;;;;;6281458;28;20052;-86
2023/12/14 06:53:29;;;;;;;0.20;0.20;;;;;;;;;;6274169;28;20032;-86
2023/12/14 06:56:30;;;;;;;0.20;0.20;;;;;;;;;;6297326;28;20364;-86
2023/12/14 06:59:30;;;;;;;0.20;0.20;;;;;;;;;;6301320;28;20047;-86
2023/12/14 07:02:30;;;;;;;0.20;0.20;;;;;;;;;;6302417;28;20032;-86
2023/12/14 07:05:32;;;;;;;0.20;0.20;;;;;;;;;;6279604;28;20062;-86
2023/12/14 07:08:32;;;;;;;0.20;0.20;;;;;;;;;;6292928;28;20096;-86
2023/12/14 07:11:32;;;;;;;0.20;0.20;;;;;;;;;;6287551;28;20446;-86
2023/12/14 07:14:32;;;;;;;0.20;0.20;;;;;;;;;;6291765;28;20423;-85
2023/12/14 07:17:34;;;;;;;0.20;0.20;;;;;;;;;;6292614;28;20505;-85
2023/12/14 07:20:34;;;;;;;0.20;0.20;;;;;;;;;;6291668;28;20025;-85
2023/12/14 07:23:35;;;;;;;0.20;0.20;;;;;;;;;;6291547;28;20056;-85
2023/12/14 07:26:35;;;;;;;0.20;0.20;;;;;;;;;;6292127;28;20521;-85
2023/12/14 07:29:35;;;;;;;0.20;0.20;;;;;;;;;;6292010;28;20027;-85
2023/12/14 07:32:35;;;;;;;0.20;0.20;;;;;;;;;;6290614;28;20051;-85
2023/12/14 07:35:36;;;;;;;0.20;0.20;;;;;;;;;;6294953;28;20483;-83
2023/12/14 07:38:36;;;;;;;0.20;0.20;;;;;;;;;;6285131;28;20441;-83
2023/12/14 07:41:36;;;;;;;0.20;0.20;;;;;;;;;;6276720;28;20012;-83
2023/12/14 07:44:37;;;;;;;0.20;0.20;;;;;;;;;;6296466;28;20039;-83
2023/12/14 07:47:37;;;;;;;0.20;0.20;;;;;;;;;;6275308;28;20017;-83
2023/12/14 07:50:38;;;;;;;0.20;0.20;;;;;;;;;;6298729;28;20016;-83
2023/12/14 07:53:38;;;;;;;0.20;0.20;;;;;;;;;;6294547;28;20062;-78
2023/12/14 07:56:38;;;;;;;0.20;0.20;;;;;;;;;;6281527;28;20317;-78
2023/12/14 07:59:39;;;;;;;0.20;0.20;;;;;;;;;;6297293;28;20028;-78
2023/12/14 08:02:39;;;;;;;0.20;0.20;;;;;;;;;;6303584;28;20028;-83
2023/12/14 08:05:39;;;;;;;0.20;0.20;;;;;;;;;;6288444;28;20049;-83
2023/12/14 08:08:39;;;;;;;0.20;0.20;;;;;;;;;;6297528;28;20461;-83
2023/12/14 08:11:40;;;;;;;0.20;0.20;;;;;;;;;;6280390;28;20040;-83
2023/12/14 08:14:43;;;;;;;0.20;0.20;;;;;;;;;;6297752;28;20036;-83
2023/12/14 08:17:43;;;;;;;0.20;0.20;;;;;;;;;;6299579;28;20020;-83
2023/12/14 08:20:44;;;;;;;0.20;0.20;;;;;;;;;;6300991;28;20147;-84
2023/12/14 08:23:44;;;;;;;0.20;0.20;;;;;;;;;;6288621;28;20090;-83
2023/12/14 08:26:44;;;;;;;0.20;0.20;;;;;;;;;;6297888;28;20031;-84
2023/12/14 08:29:45;;;;;;;0.20;0.20;;;;;;;;;;6295040;28;20446;-84
2023/12/14 08:32:46;;;;;;;0.20;0.20;;;;;;;;;;6297270;28;20078;-84
2023/12/14 08:35:46;;;;;;;0.20;0.20;;;;;;;;;;6303630;28;20024;-84
2023/12/14 08:38:46;;;;;;;0.20;0.20;;;;;;;;;;6290970;28;20032;-84
2023/12/14 08:41:48;;;;;;;0.20;0.20;;;;;;;;;;6296365;28;20103;-83
2023/12/14 08:44:48;;;;;;;0.20;0.20;;;;;;;;;;6294400;28;20059;-83
2023/12/14 08:47:48;;;;;;;0.20;0.20;;;;;;;;;;6294658;28;20024;-83
2023/12/14 08:50:48;;;;;;;0.20;0.20;;;;;;;;;;6285936;28;20055;-83
2023/12/14 08:53:48;;;;;;;0.20;0.20;;;;;;;;;;6275130;28;20113;-83
2023/12/14 08:56:49;;;;;;;0.20;0.20;;;;;;;;;;6292467;28;20847;-83
2023/12/14 08:59:49;;;;;;;0.20;0.20;;;;;;;;;;6294983;28;20364;-82
2023/12/14 09:02:49;;;;;;;0.20;0.20;;;;;;;;;;6292878;28;20039;-82
2023/12/14 09:05:49;;;;;;;0.20;0.20;;;;;;;;;;6294781;28;20044;-82
2023/12/14 09:08:50;;;;;;;0.20;0.20;;;;;;;;;;6281579;28;20043;-82
2023/12/14 09:11:50;;;;;;;0.20;0.20;;;;;;;;;;6283684;28;20029;-81
2023/12/14 09:14:50;;;;;;;0.20;0.20;;;;;;;;;;6291641;28;20036;-82
2023/12/14 09:17:51;;;;;;;0.20;0.20;;;;;;;;;;6274692;28;20033;-82
2023/12/14 09:20:51;;;;;;;0.20;0.20;;;;;;;;;;6293924;28;20107;-82
2023/12/14 09:23:53;;;;;;;0.20;0.20;;;;;;;;;;6295287;28;20085;-82
2023/12/14 09:26:53;;;;;;;0.20;0.20;;;;;;;;;;6275035;28;20009;-82
2023/12/14 09:29:53;;;;;;;0.20;0.20;;;;;;;;;;6297722;28;20452;-82
2023/12/14 09:32:54;;;;;;;0.20;0.20;;;;;;;;;;6275290;28;20028;-82
2023/12/14 09:35:54;;;;;;;0.10;0.10;;;;;;;;;;6304799;28;20032;-82
2023/12/14 09:38:54;;;;;;;0.20;0.20;;;;;;;;;;6302975;28;20024;-82
2023/12/14 09:42:04;;;;;;;0.20;0.20;;;;;;;;;;6297651;28;20016;-82
2023/12/14 09:45:06;;;;;;;0.20;0.20;;;;;;;;;;6301126;28;20012;-81
2023/12/14 09:48:06;;;;;;;0.20;0.20;;;;;;;;;;6294133;28;20119;-82
2023/12/14 09:51:07;;;;;;;0.20;0.20;;;;;;;;;;6284539;28;20112;-82
2023/12/14 09:54:07;;;;;;;0.20;0.20;;;;;;;;;;6283661;28;20027;-82
2023/12/14 09:57:07;;;;;;;0.20;0.20;;;;;;;;;;6275549;28;20043;-82
2023/12/14 10:00:10;;;;;;;0.20;0.20;;;;;;;;;;6293031;28;20490;-82
2023/12/14 10:03:18;;;;;;;0.20;0.20;;;;;;;;;;6293878;28;20457;-81
2023/12/14 10:06:19;;;;;;;0.20;0.20;;;;;;;;;;6305681;28;20017;-82
2023/12/14 10:09:22;;;;;;;0.20;0.20;;;;;;;;;;6292588;28;20008;-82
2023/12/14 10:12:24;;;;;;;0.10;0.10;;;;;;;;;;6297857;28;20021;-84
2023/12/14 10:15:25;;;;;;;0.20;0.20;;;;;;;;;;6275897;28;20039;-84
2023/12/14 10:18:26;;;;;;;0.20;0.20;;;;;;;;;;6292443;28;20158;-84
2023/12/14 10:21:27;;;;;;;0.20;0.20;;;;;;;;;;6294489;28;20360;-84
2023/12/14 10:24:27;;;;;;;0.20;0.20;;;;;;;;;;6292377;28;20033;-81
2023/12/14 10:27:27;;;;;;;0.20;0.20;;;;;;;;;;6295247;28;20115;-81
2023/12/14 10:30:28;;;;;;;0.20;0.20;;;;;;;;;;6296009;28;20024;-81
2023/12/14 10:33:28;;;;;;;0.20;0.20;;;;;;;;;;6295606;28;20025;-81
2023/12/14 10:36:28;;;;;;;0.20;0.20;;;;;;;;;;6277468;28;20020;-81
2023/12/14 10:39:29;;;;;;;0.10;0.10;;;;;;;;;;6294682;28;20324;-81
2023/12/14 10:42:29;;;;;;;0.20;0.20;;;;;;;;;;6309980;28;20024;-81
2023/12/14 10:45:32;;;;;;;0.20;0.20;;;;;;;;;;6277858;28;20112;-81
2023/12/14 10:48:34;;;;;;;0.20;0.20;;;;;;;;;;6297732;28;20016;-82
2023/12/14 10:51:37;;;;;;;0.20;0.20;;;;;;;;;;6294054;28;20030;-82
2023/12/14 10:54:37;;;;;;;;;;;;;;;;;;6275736;28;20471;-82
2023/12/14 10:57:37;;;;;;;0.15;0.15;;;;;;;;;;6289044;28;19908;-82
2023/12/14 11:00:38;;;;;;;0.20;0.20;;;;;;;;;;6292118;28;20244;-82
2023/12/14 11:03:40;;;;;;;0.20;0.20;;;;;;;;;;6303327;28;20037;-82
2023/12/14 11:06:42;;;;;;;;;;;;;;;;;;6292080;28;20376;-82
2023/12/14 11:09:44;;;;;;;0.20;0.20;;;;;;;;;;6293103;28;19912;-82
2023/12/14 11:12:52;;;;;;;0.20;0.20;;;;;;;;;;6273631;28;20055;-83
2023/12/14 11:15:52;;;;;;;0.20;0.20;;;;;;;;;;6278667;28;20077;-83
2023/12/14 11:19:11;;;;;;;0.20;0.20;;;;;;;;;;6305309;28;20020;-83
2023/12/14 11:22:12;;;;;;;0.20;0.20;;;;;;;;;;6280708;28;20501;-83
2023/12/14 11:25:13;;;;;;;0.20;0.20;;;;;;;;;;6281899;28;20387;-83
2023/12/14 11:28:14;;;;;;;0.20;0.20;;;;;;;;;;6301292;28;20016;-82
2023/12/14 11:31:14;;;;;;;0.20;0.20;;;;;;;;;;6305163;28;20028;-82
2023/12/14 11:34:15;;;;;;;0.20;0.20;;;;;;;;;;6296081;28;20498;-82
2023/12/14 11:37:15;;;;;;;0.20;0.20;;;;;;;;;;6277599;28;20070;-82
2023/12/14 11:40:16;;;;;;;0.20;0.20;;;;;;;;;;6287912;28;20028;-82
2023/12/14 11:43:20;;;;;;;0.10;0.10;;;;;;;;;;6278064;28;20062;-83
2023/12/14 11:46:20;;;;;;;0.20;0.20;;;;;;;;;;6285898;28;20467;-83
2023/12/14 11:49:20;;;;;;;0.20;0.20;;;;;;;;;;6292574;28;20031;-82
2023/12/14 11:52:21;;;;;;;0.20;0.20;;;;;;;;;;6297758;28;20139;-83
2023/12/14 11:55:22;;;;;;;0.20;0.20;;;;;;;;;;6289813;28;20398;-83
2023/12/14 11:58:24;;;;;;;0.20;0.20;;;;;;;;;;6290478;28;20032;-83
2023/12/14 12:01:25;;;;;;;0.20;0.20;;;;;;;;;;6284603;28;20063;-83
2023/12/14 12:04:26;;;;;;;0.20;0.20;;;;;;;;;;6280675;28;20089;-83
2023/12/14 12:07:26;;;;;;;0.20;0.20;;;;;;;;;;6295986;28;20533;-83
2023/12/14 12:10:28;;;;;;;0.20;0.20;;;;;;;;;;6285889;28;20303;-83
2023/12/14 12:13:29;;;;;;;0.20;0.20;;;;;;;;;;6303164;28;20029;-83
2023/12/14 12:16:29;;;;;;;0.20;0.20;;;;;;;;;;6294779;28;20129;-83
2023/12/14 12:19:30;;;;;;;0.20;0.20;;;;;;;;;;6295651;28;20012;-83
2023/12/14 12:22:30;;;;;;;0.20;0.20;;;;;;;;;;6295625;28;20024;-84
2023/12/14 12:25:31;;;;;;;0.20;0.20;;;;;;;;;;6295005;28;20060;-83
2023/12/14 12:28:31;;;;;;;0.20;0.20;;;;;;;;;;6283521;28;20064;-84
2023/12/14 12:31:33;;;;;;;0.20;0.20;;;;;;;;;;6276182;28;20020;-84
2023/12/14 12:34:33;;;;;;;0.20;0.20;;;;;;;;;;6283507;28;20433;-85
2023/12/14 12:37:33;;;;;;;0.20;0.20;;;;;;;;;;6293055;28;20044;-84
2023/12/14 12:40:34;;;;;;;0.20;0.20;;;;;;;;;;6283585;28;20025;-84
2023/12/14 12:43:34;;;;;;;0.10;0.10;;;;;;;;;;6295099;28;20024;-84
2023/12/14 12:46:35;;;;;;;0.20;0.20;;;;;;;;;;6283012;28;20383;-84
2023/12/14 12:49:35;;;;;;;0.20;0.20;;;;;;;;;;6290622;28;20396;-84
2023/12/14 12:52:37;;;;;;;0.20;0.20;;;;;;;;;;6287043;28;20024;-84
2023/12/14 12:55:37;;;;;;;0.20;0.20;;;;;;;;;;6287662;28;20027;-84
2023/12/14 12:58:37;;;;;;;0.10;0.10;;;;;;;;;;6282619;28;20021;-84
2023/12/14 13:01:37;;;;;;;0.20;0.20;;;;;;;;;;6284554;28;20093;-83
2023/12/14 13:04:38;;;;;;;0.20;0.20;;;;;;;;;;6279223;28;20041;-83
2023/12/14 13:07:38;;;;;;;0.20;0.20;;;;;;;;;;6295554;28;20023;-83
2023/12/14 13:10:39;;;;;;;0.20;0.20;;;;;;;;;;6289767;28;20443;-83
2023/12/14 13:13:39;;;;;;;0.20;0.20;;;;;;;;;;6273972;28;20560;-83
2023/12/14 13:16:40;;;;;;;0.20;0.20;;;;;;;;;;6286516;28;20387;-83
2023/12/14 13:19:41;;;;;;;0.20;0.20;;;;;;;;;;6290533;28;20025;-83
2023/12/14 13:22:41;;;;;;;0.20;0.20;;;;;;;;;;6294003;28;20575;-83
2023/12/14 13:25:41;;;;;;;0.20;0.20;;;;;;;;;;6265251;28;20444;-83
2023/12/14 13:28:44;;;;;;;0.10;0.10;;;;;;;;;;6296888;28;20016;-82
2023/12/14 13:31:44;;;;;;;0.20;0.20;;;;;;;;;;6301097;28;20078;-82
2023/12/14 13:34:45;;;;;;;0.20;0.20;;;;;;;;;;6286101;28;20032;-83
2023/12/14 13:37:46;;;;;;;0.20;0.20;;;;;;;;;;6293660;28;20027;-83
2023/12/14 13:40:46;;;;;;;0.20;0.20;;;;;;;;;;6272556;28;20020;-83
2023/12/14 13:43:46;;;;;;;0.20;0.20;;;;;;;;;;6285918;28;20032;-83
2023/12/14 13:46:47;;;;;;;0.20;0.20;;;;;;;;;;6285904;28;20526;-82
2023/12/14 13:49:47;;;;;;;0.20;0.20;;;;;;;;;;6288512;28;20617;-82
2023/12/14 13:52:47;;;;;;;0.10;0.10;;;;;;;;;;6275042;28;20033;-83
2023/12/14 13:55:51;;;;;;;0.20;0.20;;;;;;;;;;6270355;28;20024;-83
2023/12/14 13:58:51;;;;;;;0.20;0.20;;;;;;;;;;6292105;28;20506;-82
2023/12/14 14:01:51;;;;;;;0.20;0.20;;;;;;;;;;6265687;28;20026;-80
2023/12/14 14:04:52;;;;;;;0.20;0.20;;;;;;;;;;6282024;28;20048;-79
2023/12/14 14:07:52;;;;;;;0.20;0.20;;;;;;;;;;6265940;28;20075;-79
2023/12/14 14:10:52;;;;;;;0.20;0.20;;;;;;;;;;6279645;28;20036;-79
2023/12/14 14:13:53;;;;;;;0.20;0.20;;;;;;;;;;6264975;28;20043;-82
2023/12/14 14:16:53;;;;;;;0.20;0.20;;;;;;;;;;6279960;28;20087;-82
2023/12/14 14:19:53;;;;;;;0.20;0.20;;;;;;;;;;6292331;28;20073;-82
2023/12/14 14:22:54;;;;;;;0.20;0.20;;;;;;;;;;6304745;28;20106;-82
2023/12/14 14:25:54;;;;;;;0.20;0.20;;;;;;;;;;6274825;28;20029;-82
2023/12/14 14:28:59;;;;;;;0.20;0.20;;;;;;;;;;6288982;28;20040;-82
2023/12/14 14:31:59;;;;;;;0.20;0.20;;;;;;;;;;6294397;28;20065;-82
2023/12/14 14:35:00;;;;;;;0.20;0.20;;;;;;;;;;6287314;28;20423;-82
2023/12/14 14:38:01;;;;;;;0.20;0.20;;;;;;;;;;6271530;28;20028;-82
2023/12/14 14:41:01;;;;;;;0.10;0.10;;;;;;;;;;6290620;28;20169;-82
2023/12/14 14:44:01;;;;;;;0.20;0.20;;;;;;;;;;6292286;28;20309;-82
2023/12/14 14:47:02;;;;;;;0.20;0.20;;;;;;;;;;6274410;28;20027;-82
2023/12/14 14:50:04;;;;;;;0.20;0.20;;;;;;;;;;6294951;28;20009;-83
2023/12/14 14:53:04;;;;;;;;;;;;;;;;;;6291786;28;20028;-82
2023/12/14 14:56:05;;;;;;;0.20;0.20;;;;;;;;;;6271165;28;20004;-82
2023/12/14 14:59:07;;;;;;;0.20;0.20;;;;;;;;;;6293325;28;20027;-82
2023/12/14 15:02:07;;;;;;;0.20;0.20;;;;;;;;;;6272246;28;20073;-82
2023/12/14 15:05:08;;;;;;;0.20;0.20;;;;;;;;;;6288656;28;20045;-82
2023/12/14 15:08:08;;;;;;;0.20;0.20;;;;;;;;;;6289152;28;20332;-81
2023/12/14 15:11:10;;;;;;;0.20;0.20;;;;;;;;;;6298363;28;20383;-81
2023/12/14 15:14:10;;;;;;;0.20;0.20;;;;;;;;;;6287000;28;20025;-81
2023/12/14 15:17:12;;;;;;;0.20;0.20;;;;;;;;;;6292044;28;20085;-81
2023/12/14 15:20:13;;;;;;;0.20;0.20;;;;;;;;;;6281503;28;20482;-81
2023/12/14 15:23:14;;;;;;;0.20;0.20;;;;;;;;;;6284736;28;20379;-78
2023/12/14 15:26:15;;;;;;;0.20;0.20;;;;;;;;;;6282532;28;20020;-78
2023/12/14 15:29:15;;;;;;;0.17;0.17;;;;;;;;;;6271876;28;20016;-78
2023/12/14 15:32:16;;;;;;;0.20;0.20;;;;;;;;;;6290586;28;20100;-78
2023/12/14 15:35:16;;;;;;;0.20;0.20;;;;;;;;;;6278744;28;20120;-78
2023/12/14 15:38:16;;;;;;;0.20;0.20;;;;;;;;;;6277628;28;20031;-79
2023/12/14 15:41:17;;;;;;;0.20;0.20;;;;;;;;;;6287904;28;20047;-78
2023/12/14 15:44:17;;;;;;;0.20;0.20;;;;;;;;;;6287716;28;20059;-78
2023/12/14 15:47:17;;;;;;;0.20;0.20;;;;;;;;;;6299466;28;20020;-78
2023/12/14 15:50:18;;;;;;;0.20;0.20;;;;;;;;;;6271436;28;20143;-78
2023/12/14 15:53:18;;;;;;;0.20;0.20;;;;;;;;;;6290957;28;20121;-78
2023/12/14 15:56:18;;;;;;;0.20;0.20;;;;;;;;;;6270134;28;20509;-78
2023/12/14 15:59:18;;;;;;;0.20;0.20;;;;;;;;;;6285375;28;20470;-78
2023/12/14 16:02:19;;;;;;;0.20;0.20;;;;;;;;;;6281128;28;20061;-78
2023/12/14 16:05:19;;;;;;;0.20;0.20;;;;;;;;;;6295121;28;20036;-78
2023/12/14 16:08:19;;;;;;;0.20;0.20;;;;;;;;;;6290618;28;20024;-78
2023/12/14 16:11:19;;;;;;;0.10;0.10;;;;;;;;;;6293909;28;20107;-78
2023/12/14 16:14:20;;;;;;;0.20;0.20;;;;;;;;;;6284746;28;20017;-78
2023/12/14 16:17:20;;;;;;;0.20;0.20;;;;;;;;;;6287825;28;20479;-78
2023/12/14 16:20:22;;;;;;;0.20;0.20;;;;;;;;;;6291354;28;20185;-79
2023/12/14 16:23:22;;;;;;;0.20;0.20;;;;;;;;;;6276056;28;20021;-78
2023/12/14 16:26:23;;;;;;;0.20;0.20;;;;;;;;;;6276215;28;20031;-78
2023/12/14 16:29:23;;;;;;;0.20;0.20;;;;;;;;;;6295850;28;20562;-78
2023/12/14 16:32:24;;;;;;;0.20;0.20;;;;;;;;;;6275872;28;20543;-82
2023/12/14 16:35:24;;;;;;;0.20;0.20;;;;;;;;;;6268351;28;20525;-81
2023/12/14 16:38:24;;;;;;;0.20;0.20;;;;;;;;;;6266038;28;20395;-81
2023/12/14 16:41:25;;;;;;;0.20;0.20;;;;;;;;;;6293779;28;20505;-82
2023/12/14 16:44:25;;;;;;;0.20;0.20;;;;;;;;;;6298301;28;20514;-81
2023/12/14 16:47:25;;;;;;;0.20;0.20;;;;;;;;;;6285198;28;20019;-81
2023/12/14 16:50:25;;;;;;;0.20;0.20;;;;;;;;;;6307829;28;20079;-82
2023/12/14 16:53:26;;;;;;;0.20;0.20;;;;;;;;;;6276782;28;20031;-81
2023/12/14 16:56:30;;;;;;;0.20;0.20;;;;;;;;;;6274797;28;20099;-81
2023/12/14 16:59:30;;;;;;;0.20;0.20;;;;;;;;;;6291901;28;20119;-81
2023/12/14 17:02:31;;;;;;;0.20;0.20;;;;;;;;;;6293437;28;20073;-81
2023/12/14 17:05:31;;;;;;;0.20;0.20;;;;;;;;;;6282779;28;20072;-81
2023/12/14 17:08:32;;;;;;;0.20;0.20;;;;;;;;;;6287107;28;20083;-81
2023/12/14 17:11:32;;;;;;;0.20;0.20;;;;;;;;;;6299709;28;20487;-81
2023/12/14 17:14:32;;;;;;;0.20;0.20;;;;;;;;;;6280565;28;20510;-82
2023/12/14 17:17:35;;;;;;;0.20;0.20;;;;;;;;;;6291622;28;20032;-82
2023/12/14 17:20:35;;;;;;;0.20;0.20;;;;;;;;;;6294142;28;20032;-82
2023/12/14 17:23:36;;;;;;;0.20;0.20;;;;;;;;;;6279883;28;20082;-81
2023/12/14 17:26:37;;;;;;;0.20;0.20;;;;;;;;;;6291731;28;20499;-81
2023/12/14 17:29:38;;;;;;;0.20;0.20;;;;;;;;;;6281625;28;20025;-81
2023/12/14 17:32:38;;;;;;;0.20;0.20;;;;;;;;;;6284625;28;20486;-81
2023/12/14 17:35:38;;;;;;;0.20;0.20;;;;;;;;;;6283481;28;20106;-82
2023/12/14 17:38:39;;;;;;;0.20;0.20;;;;;;;;;;6279102;28;20032;-82
2023/12/14 17:41:39;;;;;;;0.20;0.20;;;;;;;;;;6281771;28;20029;-81
2023/12/14 17:44:39;;;;;;;0.10;0.10;;;;;;;;;;6262726;28;20021;-81
2023/12/14 17:47:39;;;;;;;0.20;0.20;;;;;;;;;;6288495;28;20048;-81
2023/12/14 17:50:40;;;;;;;0.20;0.20;;;;;;;;;;6278824;28;20024;-81
2023/12/14 17:53:43;;;;;;;0.20;0.20;;;;;;;;;;6286664;28;20074;-81
2023/12/14 17:56:45;;;;;;;0.20;0.20;;;;;;;;;;6283499;28;20017;-81
2023/12/14 17:59:46;;;;;;;0.10;0.10;;;;;;;;;;6284335;28;20032;-81
2023/12/14 18:02:46;;;;;;;0.20;0.20;;;;;;;;;;6269879;28;20028;-81